Time;durP1;ratioP1;P1;durP2;ratioP2;P2;SDS_P1;SDS_P2;PMS_P1;PMS_P2;Temp;Humidity;BMP_temperature;BMP_pressure;BME280_temperature;BME280_humidity;BME280_pressure;Samples;Min_cycle;Max_cycle;Signal;HPM_P1;HPM_P2
2023/02/19 00:00:49;;;;;;;4.72;4.32;;;10.40;99.90;;;;;;6204762;28;20129;-81
2023/02/19 00:03:52;;;;;;;6.45;4.43;;;10.40;99.90;;;;;;6204834;28;20054;-80
2023/02/19 00:06:53;;;;;;;4.80;4.35;;;10.40;99.90;;;;;;6205560;28;20500;-80
2023/02/19 00:09:56;;;;;;;5.22;4.72;;;10.40;99.90;;;;;;6204486;28;20050;-81
2023/02/19 00:12:58;;;;;;;5.25;4.70;;;10.40;99.90;;;;;;6199737;28;20042;-80
2023/02/19 00:16:06;;;;;;;4.07;3.67;;;10.40;99.90;;;;;;6204850;28;20054;-81
2023/02/19 00:19:13;;;;;;;7.75;5.13;;;10.50;99.90;;;;;;6205598;28;20050;-81
2023/02/19 00:22:15;;;;;;;4.70;4.30;;;10.40;99.90;;;;;;6203701;28;20046;-80
2023/02/19 00:25:18;;;;;;;3.83;3.53;;;10.40;99.90;;;;;;6215785;28;20046;-82
2023/02/19 00:28:20;;;;;;;4.90;4.43;;;10.40;99.90;;;;;;6228684;28;20049;-83
2023/02/19 00:31:24;;;;;;;5.28;4.78;;;10.40;99.90;;;;;;6228791;28;20539;-82
2023/02/19 00:34:25;;;;;;;3.47;3.10;;;10.40;99.90;;;;;;6227665;28;20053;-82
2023/02/19 00:37:27;;;;;;;3.90;3.50;;;10.50;99.90;;;;;;6228549;28;20045;-82
2023/02/19 00:40:31;;;;;;;5.10;4.60;;;10.40;99.90;;;;;;6227979;28;20042;-82
2023/02/19 00:43:32;;;;;;;3.58;3.13;;;10.40;99.90;;;;;;6226935;28;20128;-83
2023/02/19 00:46:36;;;;;;;4.90;4.40;;;10.40;99.90;;;;;;6227554;28;20064;-82
2023/02/19 00:49:38;;;;;;;4.30;3.90;;;10.40;99.90;;;;;;6227432;28;20057;-83
2023/02/19 00:52:40;;;;;;;6.88;4.53;;;10.40;99.90;;;;;;6241307;23;20062;-79
2023/02/19 00:55:43;;;;;;;5.28;4.40;;;10.40;99.90;;;;;;6226321;28;20054;-79
2023/02/19 00:58:45;;;;;;;7.40;3.90;;;10.30;99.90;;;;;;6226010;28;20396;-79
2023/02/19 01:01:46;;;;;;;4.78;4.28;;;10.30;99.90;;;;;;6226374;28;20080;-79
2023/02/19 01:04:48;;;;;;;4.72;3.60;;;10.20;99.90;;;;;;6249789;28;20443;-79
2023/02/19 01:07:49;;;;;;;5.00;4.57;;;10.20;99.90;;;;;;6249747;28;20410;-80
2023/02/19 01:10:53;;;;;;;6.22;3.88;;;10.10;99.90;;;;;;6249533;28;20423;-78
2023/02/19 01:13:57;;;;;;;8.38;4.63;;;10.00;99.90;;;;;;6248746;28;20050;-78
2023/02/19 01:16:59;;;;;;;5.72;5.00;;;10.00;99.90;;;;;;6249787;28;20045;-79
2023/02/19 01:20:00;;;;;;;5.88;4.68;;;9.90;99.90;;;;;;6249336;28;20050;-79
2023/02/19 01:23:02;;;;;;;6.10;5.45;;;9.90;99.90;;;;;;6247866;28;20056;-79
2023/02/19 01:26:07;;;;;;;7.00;5.70;;;9.90;99.90;;;;;;6248497;28;20045;-79
2023/02/19 01:29:09;;;;;;;6.43;5.40;;;9.90;99.90;;;;;;6248708;28;20045;-78
2023/02/19 01:32:11;;;;;;;5.65;5.10;;;9.90;99.90;;;;;;6246275;28;20045;-79
2023/02/19 01:35:12;;;;;;;6.45;5.43;;;9.80;99.90;;;;;;6243293;28;20487;-79
2023/02/19 01:38:14;;;;;;;6.78;5.15;;;9.80;99.90;;;;;;6203546;28;20047;-79
2023/02/19 01:41:20;;;;;;;9.13;4.88;;;9.80;99.90;;;;;;6199028;28;20488;-79
2023/02/19 01:44:59;;;;;;;6.00;4.05;;;9.90;99.90;;;;;;6198732;28;20768;-78
2023/02/19 01:48:07;;;;;;;5.18;4.68;;;9.90;99.90;;;;;;6199217;28;20435;-78
2023/02/19 01:51:13;;;;;;;5.20;4.40;;;9.80;99.90;;;;;;6199444;28;20049;-78
2023/02/19 01:54:17;;;;;;;5.15;4.57;;;9.90;99.90;;;;;;6198300;28;20057;-78
2023/02/19 01:57:23;;;;;;;6.15;3.78;;;9.90;99.90;;;;;;6199300;28;20050;-78
2023/02/19 02:00:25;;;;;;;4.20;3.58;;;9.90;99.90;;;;;;6198706;28;20057;-78
2023/02/19 02:03:28;;;;;;;4.68;4.28;;;9.90;99.90;;;;;;6199295;28;20061;-78
2023/02/19 02:06:33;;;;;;;4.40;3.70;;;9.80;99.90;;;;;;6199859;28;20046;-78
2023/02/19 02:13:00;;;;;;;3.35;3.00;;;9.90;99.90;;;;;;6201912;28;20050;-78
2023/02/19 02:16:21;;;;;;;4.10;3.55;;;9.90;99.90;;;;;;6223269;28;20049;-78
2023/02/19 02:20:06;;;;;;;3.90;3.35;;;9.80;99.90;;;;;;6223574;28;20054;-78
2023/02/19 02:23:13;;;;;;;4.55;3.55;;;9.90;99.90;;;;;;6241878;28;20698;-78
2023/02/19 02:26:34;;;;;;;6.43;3.00;;;9.80;99.90;;;;;;6247358;28;20072;-78
2023/02/19 02:30:09;;;;;;;3.17;2.70;;;9.80;99.90;;;;;;6246778;28;20074;-78
2023/02/19 02:33:20;;;;;;;3.72;3.40;;;9.80;99.90;;;;;;6246640;28;20053;-78
2023/02/19 02:36:25;;;;;;;3.47;3.17;;;9.80;99.90;;;;;;6247484;28;20049;-78
2023/02/19 02:39:29;;;;;;;3.35;2.78;;;9.80;99.90;;;;;;6247193;28;20061;-78
2023/02/19 02:42:33;;;;;;;3.47;3.17;;;9.90;99.90;;;;;;6247017;28;20053;-78
2023/02/19 02:45:36;;;;;;;4.40;2.90;;;9.90;99.90;;;;;;6247225;28;20046;-78
2023/02/19 02:48:42;;;;;;;4.65;2.45;;;9.90;99.90;;;;;;6237841;28;20045;-78
2023/02/19 02:51:49;;;;;;;2.85;2.53;;;9.90;99.90;;;;;;6247285;28;20049;-78
2023/02/19 02:55:02;;;;;;;3.35;2.35;;;9.90;99.90;;;;;;6222393;28;20053;-78
2023/02/19 02:58:05;;;;;;;3.50;2.28;;;9.80;99.90;;;;;;6222476;28;20495;-78
2023/02/19 03:04:35;;;;;;;2.08;1.90;;;9.90;99.90;;;;;;6221605;28;20503;-78
2023/02/19 03:07:41;;;;;;;1.92;1.70;;;9.90;99.90;;;;;;6222159;28;20091;-78
2023/02/19 03:10:47;;;;;;;1.55;1.30;;;9.90;99.90;;;;;;6222234;28;20458;-78
2023/02/19 03:20:43;;;;;;;2.13;1.33;;;10.00;99.90;;;;;;6222065;28;20515;-78
2023/02/19 03:27:08;;;;;;;1.20;1.10;;;10.00;99.90;;;;;;6221818;28;20045;-79
2023/02/19 03:30:14;;;;;;;1.40;1.30;;;10.10;99.90;;;;;;6221678;28;20042;-78
2023/02/19 03:33:20;;;;;;;1.13;1.02;;;10.10;99.90;;;;;;6222850;28;20041;-78
2023/02/19 03:36:25;;;;;;;1.13;1.02;;;10.10;99.90;;;;;;6222434;28;20046;-78
2023/02/19 03:39:27;;;;;;;1.17;1.08;;;10.10;99.90;;;;;;6223171;28;20049;-78
2023/02/19 03:42:36;;;;;;;1.20;1.10;;;10.10;99.90;;;;;;6221937;28;20053;-78
2023/02/19 03:45:47;;;;;;;1.10;0.98;;;10.10;99.90;;;;;;6224651;28;20042;-78
2023/02/19 03:48:56;;;;;;;1.33;1.23;;;10.10;99.90;;;;;;6227987;28;20069;-78
2023/02/19 03:52:04;;;;;;;1.35;1.25;;;10.10;99.90;;;;;;6227395;28;20046;-79
2023/02/19 03:55:11;;;;;;;1.65;1.15;;;10.10;99.90;;;;;;6226878;28;20045;-78
2023/02/19 03:58:18;;;;;;;1.58;1.45;;;10.10;99.90;;;;;;6226948;28;20041;-78
2023/02/19 04:01:26;;;;;;;1.25;1.10;;;10.10;99.90;;;;;;6226157;28;20108;-78
2023/02/19 04:04:32;;;;;;;1.90;1.70;;;10.10;99.90;;;;;;6226797;28;20042;-78
2023/02/19 04:07:38;;;;;;;1.48;1.38;;;10.10;99.90;;;;;;6226364;28;20443;-78
2023/02/19 04:10:41;;;;;;;2.70;1.70;;;10.10;99.90;;;;;;6225944;28;20049;-78
2023/02/19 04:13:47;;;;;;;3.35;1.52;;;10.00;99.90;;;;;;6224915;28;20045;-78
2023/02/19 04:16:54;;;;;;;1.77;1.20;;;10.00;99.90;;;;;;6225548;28;20053;-78
2023/02/19 04:19:59;;;;;;;2.15;1.60;;;10.00;99.90;;;;;;6225004;28;20053;-78
2023/02/19 04:23:01;;;;;;;3.80;1.30;;;9.90;99.90;;;;;;6226303;28;20061;-79
2023/02/19 04:26:05;;;;;;;4.43;1.40;;;9.90;99.90;;;;;;6226111;28;20064;-78
2023/02/19 04:29:07;;;;;;;0.95;0.95;;;9.90;99.90;;;;;;6226102;28;20562;-79
2023/02/19 04:32:10;;;;;;;4.03;1.42;;;9.90;99.90;;;;;;6226454;28;20050;-79
2023/02/19 04:35:13;;;;;;;0.98;0.93;;;9.90;99.90;;;;;;6226618;28;20061;-78
2023/02/19 04:38:15;;;;;;;0.98;0.85;;;9.90;99.90;;;;;;6226237;28;20053;-78
2023/02/19 04:41:16;;;;;;;1.23;1.10;;;9.90;99.90;;;;;;6225651;28;20050;-78
2023/02/19 04:44:18;;;;;;;1.02;0.93;;;9.90;99.90;;;;;;6224304;28;20125;-78
2023/02/19 04:47:20;;;;;;;1.00;0.90;;;9.80;99.90;;;;;;6224927;28;20050;-78
2023/02/19 04:50:23;;;;;;;1.38;1.25;;;9.70;99.90;;;;;;6224876;28;20053;-78
2023/02/19 04:53:25;;;;;;;1.60;1.50;;;9.70;99.90;;;;;;6223773;28;20049;-78
2023/02/19 04:56:26;;;;;;;1.98;1.00;;;9.60;99.90;;;;;;6224574;28;20056;-78
2023/02/19 04:59:28;;;;;;;1.83;1.27;;;9.60;99.90;;;;;;6225033;28;20065;-78
2023/02/19 05:02:30;;;;;;;2.67;2.47;;;9.60;99.90;;;;;;6224245;28;20049;-78
2023/02/19 05:05:34;;;;;;;0.88;0.88;;;9.60;99.90;;;;;;6223882;28;20053;-78
2023/02/19 05:08:36;;;;;;;0.90;0.90;;;9.60;99.90;;;;;;6224369;28;20053;-78
2023/02/19 05:11:38;;;;;;;0.80;0.80;;;9.60;99.90;;;;;;6223514;28;20057;-78
2023/02/19 05:14:39;;;;;;;1.15;1.00;;;9.50;99.90;;;;;;6222995;28;20046;-78
2023/02/19 05:17:41;;;;;;;1.75;0.80;;;9.50;99.90;;;;;;6223319;28;20416;-78
2023/02/19 05:20:44;;;;;;;4.68;0.80;;;9.40;99.90;;;;;;6223004;28;20403;-77
2023/02/19 05:23:46;;;;;;;1.15;0.90;;;9.40;99.90;;;;;;6223397;28;20076;-78
2023/02/19 05:26:47;;;;;;;1.40;0.82;;;9.30;99.90;;;;;;6223127;28;20053;-77
2023/02/19 05:29:49;;;;;;;1.55;1.45;;;9.30;99.90;;;;;;6224121;28;20042;-78
2023/02/19 05:32:51;;;;;;;0.85;0.85;;;9.30;99.90;;;;;;6222763;28;20042;-77
2023/02/19 05:35:55;;;;;;;1.20;0.95;;;9.20;99.90;;;;;;6223122;28;20046;-78
2023/02/19 05:38:57;;;;;;;3.10;1.02;;;9.20;99.90;;;;;;6223592;28;20057;-77
2023/02/19 05:41:59;;;;;;;3.20;2.90;;;9.20;99.90;;;;;;6223176;28;20045;-77
2023/02/19 05:45:00;;;;;;;1.02;0.90;;;9.20;99.90;;;;;;6222997;28;20046;-78
2023/02/19 05:48:03;;;;;;;1.23;1.10;;;9.10;99.90;;;;;;6225091;28;20054;-78
2023/02/19 05:51:07;;;;;;;1.00;0.80;;;9.20;99.90;;;;;;6224548;28;20046;-78
2023/02/19 05:54:09;;;;;;;1.75;1.30;;;9.20;99.90;;;;;;6223548;28;20049;-78
2023/02/19 05:57:11;;;;;;;1.70;1.13;;;9.20;99.90;;;;;;6223700;28;20439;-78
2023/02/19 06:00:15;;;;;;;1.55;1.20;;;9.20;99.90;;;;;;6225364;28;20042;-79
2023/02/19 06:03:17;;;;;;;1.73;1.20;;;9.20;99.90;;;;;;6225481;28;20405;-79
2023/02/19 06:06:20;;;;;;;1.33;1.23;;;9.20;99.90;;;;;;6225374;28;20049;-79
2023/02/19 06:09:22;;;;;;;1.58;1.35;;;9.20;99.90;;;;;;6225246;28;20696;-79
2023/02/19 06:12:24;;;;;;;4.43;2.90;;;9.20;99.90;;;;;;6226291;28;20060;-79
2023/02/19 06:15:26;;;;;;;1.60;1.50;;;9.20;99.90;;;;;;6227018;28;20056;-79
2023/02/19 06:18:27;;;;;;;1.42;1.33;;;9.20;99.90;;;;;;6225493;28;20419;-79
2023/02/19 06:21:30;;;;;;;1.60;1.42;;;9.20;99.90;;;;;;6225967;28;20049;-79
2023/02/19 06:24:32;;;;;;;1.90;1.60;;;9.20;99.90;;;;;;6225186;28;20046;-79
2023/02/19 06:27:36;;;;;;;2.28;1.70;;;9.20;99.90;;;;;;6224597;28;20050;-78
2023/02/19 06:30:38;;;;;;;2.22;1.85;;;9.20;99.90;;;;;;6223834;28;20071;-79
2023/02/19 06:33:41;;;;;;;2.15;1.70;;;9.20;99.90;;;;;;6221565;28;20042;-79
2023/02/19 06:36:44;;;;;;;1.20;1.10;;;9.10;99.90;;;;;;6223771;28;20053;-78
2023/02/19 06:39:45;;;;;;;1.23;1.13;;;9.10;99.90;;;;;;6224373;28;20057;-78
2023/02/19 06:42:47;;;;;;;1.77;1.60;;;9.10;99.90;;;;;;6223453;28;20053;-79
2023/02/19 06:45:49;;;;;;;1.40;1.00;;;9.10;99.90;;;;;;6223618;28;20055;-78
2023/02/19 06:48:51;;;;;;;1.88;1.40;;;9.10;99.90;;;;;;6222809;28;20042;-78
2023/02/19 06:51:54;;;;;;;1.75;1.40;;;9.10;99.90;;;;;;6222386;28;20050;-78
2023/02/19 06:58:04;;;;;;;1.20;1.10;;;9.20;99.90;;;;;;6225543;28;20050;-82
2023/02/19 07:04:22;;;;;;;1.65;1.52;;;9.20;99.90;;;;;;6210303;28;20051;-81
2023/02/19 07:07:56;;;;;;;2.63;1.60;;;9.20;99.90;;;;;;6211771;28;20054;-82
2023/02/19 07:14:48;;;;;;;1.88;1.77;;;9.30;99.90;;;;;;6210575;28;20056;-82
2023/02/19 07:18:17;;;;;;;2.00;1.73;;;9.30;99.90;;;;;;6215184;28;20058;-81
2023/02/19 07:24:57;;;;;;;9.90;9.15;;;9.40;99.90;;;;;;6207489;28;20176;-81
2023/02/19 07:27:59;;;;;;;21.83;18.65;;;9.40;99.90;;;;;;6225339;28;20058;-81
2023/02/19 07:31:07;;;;;;;2.45;2.00;;;9.50;99.90;;;;;;6192328;28;20050;-81
2023/02/19 07:34:09;;;;;;;;;;;9.50;99.90;;;;;;6216608;28;20483;-81
2023/02/19 07:37:10;;;;;;;2.08;1.98;;;9.60;99.90;;;;;;6217737;28;19992;-81
2023/02/19 07:40:14;;;;;;;2.20;2.00;;;9.60;99.90;;;;;;6217893;28;20074;-82
2023/02/19 07:43:15;;;;;;;3.03;2.28;;;9.60;99.90;;;;;;6218854;28;20133;-81
2023/02/19 07:46:17;;;;;;;3.53;3.00;;;9.60;99.90;;;;;;6215266;28;20049;-81
2023/02/19 07:49:25;;;;;;;4.03;3.67;;;9.60;99.90;;;;;;6208805;28;20060;-81
2023/02/19 07:52:27;;;;;;;11.45;6.78;;;9.60;99.90;;;;;;6210568;28;20129;-79
2023/02/19 07:55:31;;;;;;;8.75;7.95;;;9.60;99.90;;;;;;6226434;28;20511;-81
2023/02/19 07:58:34;;;;;;;4.78;4.38;;;9.50;99.90;;;;;;6227251;28;20052;-81
2023/02/19 08:04:58;;;;;;;2.70;2.50;;;9.50;99.90;;;;;;6208938;28;20054;-81
2023/02/19 08:08:00;;;;;;;3.20;2.95;;;9.50;99.90;;;;;;6204054;28;20042;-79
2023/02/19 08:14:25;;;;;;;2.17;1.98;;;9.50;99.90;;;;;;6203458;28;20034;-80
2023/02/19 08:17:29;;;;;;;2.75;2.47;;;9.60;99.90;;;;;;6198567;28;20042;-81
2023/02/19 08:20:30;;;;;;;4.07;2.75;;;9.60;99.90;;;;;;6201305;28;20062;-81
2023/02/19 08:23:32;;;;;;;3.05;2.33;;;9.70;99.90;;;;;;6204570;28;20058;-82
2023/02/19 08:26:36;;;;;;;3.22;2.25;;;9.70;99.90;;;;;;6209688;28;20053;-81
2023/02/19 08:29:38;;;;;;;3.47;3.17;;;9.80;99.90;;;;;;6206451;28;20049;-80
2023/02/19 08:32:40;;;;;;;2.30;2.10;;;9.80;99.90;;;;;;6206055;28;20129;-78
2023/02/19 08:35:42;;;;;;;4.70;2.17;;;9.90;99.90;;;;;;6207573;28;20050;-80
2023/02/19 08:38:44;;;;;;;3.67;3.38;;;9.90;99.90;;;;;;6209074;28;20054;-81
2023/02/19 08:41:48;;;;;;;5.28;4.45;;;10.00;99.90;;;;;;6207489;28;20038;-78
2023/02/19 08:44:49;;;;;;;7.25;4.97;;;10.10;99.90;;;;;;6201954;28;20122;-81
2023/02/19 08:54:43;;;;;;;4.35;3.78;;;10.20;99.90;;;;;;6205234;28;20050;-80
2023/02/19 08:57:46;;;;;;;4.28;3.97;;;10.30;99.90;;;;;;6206378;28;20074;-81
2023/02/19 09:00:48;;;;;;;4.50;3.33;;;10.30;99.90;;;;;;6207248;28;20050;-82
2023/02/19 09:03:50;;;;;;;4.57;4.10;;;10.40;99.90;;;;;;6205824;28;20050;-81
2023/02/19 09:06:59;;;;;;;3.80;3.10;;;10.40;99.90;;;;;;6208221;28;20052;-78
2023/02/19 09:10:09;;;;;;;5.00;2.50;;;10.50;99.90;;;;;;6203816;28;20050;-80
2023/02/19 09:13:16;;;;;;;4.07;3.78;;;10.50;99.90;;;;;;6203693;28;20066;-79
2023/02/19 09:16:27;;;;;;;5.10;4.70;;;10.70;99.90;;;;;;6204224;28;20058;-80
2023/02/19 09:19:29;;;;;;;4.97;4.57;;;10.70;99.90;;;;;;6204101;28;20055;-78
2023/02/19 09:22:30;;;;;;;8.40;7.00;;;10.70;99.90;;;;;;6200228;28;20732;-80
2023/02/19 09:25:32;;;;;;;5.85;5.32;;;10.70;99.90;;;;;;6201039;28;20133;-82
2023/02/19 09:28:40;;;;;;;3.58;3.15;;;10.80;99.90;;;;;;6201285;28;20056;-81
2023/02/19 09:31:42;;;;;;;5.38;4.47;;;10.90;99.90;;;;;;6205354;28;20114;-80
2023/02/19 09:34:44;;;;;;;3.90;3.60;;;10.90;99.90;;;;;;6203706;28;20045;-82
2023/02/19 09:37:45;;;;;;;15.93;14.30;;;10.90;99.90;;;;;;6201540;28;20038;-79
2023/02/19 09:40:48;;;;;;;9.85;9.23;;;11.00;99.90;;;;;;6203004;28;20050;-78
2023/02/19 09:43:51;;;;;;;3.47;3.00;;;11.00;99.90;;;;;;6201817;28;20133;-80
2023/02/19 09:46:55;;;;;;;5.63;4.35;;;11.10;99.90;;;;;;6203218;28;20890;-78
2023/02/19 09:50:01;;;;;;;4.65;4.25;;;11.10;99.90;;;;;;6202594;28;20048;-79
2023/02/19 09:53:05;;;;;;;4.75;3.10;;;11.10;99.90;;;;;;6205517;28;20488;-80
2023/02/19 09:56:09;;;;;;;3.60;2.78;;;11.20;99.90;;;;;;6192630;28;20062;-80
2023/02/19 09:59:23;;;;;;;5.80;2.95;;;11.20;99.90;;;;;;6218919;28;20050;-79
2023/02/19 10:02:31;;;;;;;4.33;2.27;;;11.30;99.90;;;;;;6207455;28;20471;-80
2023/02/19 10:13:45;;;;;;;4.30;3.30;;;11.20;99.90;;;;;;6225816;28;20053;-81
2023/02/19 10:17:01;;;;;;;4.53;2.70;;;11.30;99.90;;;;;;6207875;28;20049;-81
2023/02/19 11:12:25;;;;;;;5.80;3.67;;;12.10;99.90;;;;;;6070826;29;20100;-80
2023/02/19 11:15:41;;;;;;;3.78;2.90;;;12.30;99.90;;;;;;6113204;29;20284;-81
2023/02/19 11:18:56;;;;;;;5.05;3.95;;;12.40;99.90;;;;;;6111198;29;20664;-80
2023/02/19 11:25:59;;;;;;;3.50;2.17;;;12.60;99.90;;;;;;6233218;28;20129;-80
2023/02/19 11:29:17;;;;;;;5.35;2.45;;;12.60;99.90;;;;;;6233007;28;20538;-78
2023/02/19 11:43:24;;;;;;;4.82;3.20;;;13.00;99.90;;;;;;6226785;28;20077;-82
2023/02/19 11:50:41;;;;;;;6.43;2.65;;;13.20;99.90;;;;;;6180091;28;20304;-81
2023/02/19 11:58:32;;;;;;;6.55;2.45;;;13.20;99.90;;;;;;6220962;28;20411;-81
2023/02/19 12:21:58;;;;;;;11.23;4.82;;;13.50;99.90;;;;;;6225295;28;20057;-82
2023/02/19 12:25:36;;;;;;;3.70;2.55;;;13.50;99.90;;;;;;6213460;28;20049;-82
2023/02/19 12:28:59;;;;;;;4.23;2.70;;;13.50;99.90;;;;;;6207689;28;22613;-80
2023/02/19 12:32:36;;;;;;;4.07;2.38;;;13.50;99.90;;;;;;6212073;28;20722;-82
2023/02/19 12:35:53;;;;;;;7.55;2.55;;;13.60;99.90;;;;;;6235921;28;20037;-80
2023/02/19 12:39:04;;;;;;;5.00;2.70;;;13.60;99.90;;;;;;6236087;28;20149;-79
2023/02/19 12:42:17;;;;;;;8.68;3.95;;;13.60;99.90;;;;;;6231383;28;20046;-82
2023/02/19 12:45:24;;;;;;;2.47;1.77;;;13.60;99.90;;;;;;6230559;28;20060;-81
2023/02/19 12:48:32;;;;;;;2.08;1.92;;;13.70;99.90;;;;;;6232058;28;20126;-81
2023/02/19 12:51:41;;;;;;;6.75;1.90;;;13.70;99.90;;;;;;6232923;28;20060;-81
2023/02/19 12:54:47;;;;;;;5.28;2.25;;;13.60;99.90;;;;;;6257870;22;20045;-81
2023/02/19 12:57:51;;;;;;;1.70;1.35;;;13.60;99.90;;;;;;6239096;28;20057;-80
2023/02/19 13:00:57;;;;;;;3.67;1.98;;;13.40;99.90;;;;;;6241597;28;20054;-82
2023/02/19 13:04:15;;;;;;;4.75;2.10;;;13.40;99.90;;;;;;6226115;28;20053;-80
2023/02/19 13:07:23;;;;;;;4.88;2.00;;;13.60;99.90;;;;;;6213636;28;20068;-79
2023/02/19 13:10:31;;;;;;;5.22;2.13;;;13.60;99.90;;;;;;6214848;28;20046;-79
2023/02/19 13:13:40;;;;;;;6.00;2.85;;;13.70;99.90;;;;;;6213883;28;20053;-80
2023/02/19 13:16:47;;;;;;;9.40;4.40;;;13.70;99.90;;;;;;6218842;28;20058;-79
2023/02/19 13:19:51;;;;;;;6.60;2.53;;;13.80;99.90;;;;;;6218930;28;20050;-79
2023/02/19 13:26:37;;;;;;;3.15;1.73;;;13.70;99.90;;;;;;6217900;28;20054;-83
2023/02/19 13:29:54;;;;;;;5.80;3.05;;;13.70;99.90;;;;;;6209974;28;20050;-80
2023/02/19 13:33:04;;;;;;;5.13;2.95;;;13.70;99.90;;;;;;6213150;28;20054;-79
2023/02/19 13:36:14;;;;;;;8.23;2.42;;;13.80;99.90;;;;;;6209200;28;20056;-80
2023/02/19 13:39:20;;;;;;;4.13;2.40;;;13.80;99.90;;;;;;6205523;28;20041;-79
2023/02/19 13:42:25;;;;;;;6.78;2.78;;;13.80;99.90;;;;;;6204749;28;20143;-80
2023/02/19 13:45:33;;;;;;;3.70;2.58;;;13.80;99.90;;;;;;6208364;28;20142;-79
2023/02/19 13:48:36;;;;;;;3.30;2.57;;;13.80;99.90;;;;;;6209127;28;20053;-79
2023/02/19 13:51:46;;;;;;;8.88;3.13;;;13.90;99.90;;;;;;6208554;28;20053;-79
2023/02/19 13:54:50;;;;;;;6.85;2.53;;;13.90;99.90;;;;;;6203488;28;20535;-79
2023/02/19 13:57:51;;;;;;;4.28;2.58;;;13.80;99.90;;;;;;6207805;28;20452;-79
2023/02/19 14:00:53;;;;;;;8.82;2.75;;;13.70;99.90;;;;;;6209586;28;20515;-79
2023/02/19 14:04:09;;;;;;;6.35;2.88;;;13.50;99.90;;;;;;6205604;28;20103;-80
2023/02/19 14:07:48;;;;;;;5.10;2.85;;;13.50;99.90;;;;;;6212744;28;20056;-79
2023/02/19 14:10:56;;;;;;;8.65;3.42;;;13.50;99.90;;;;;;6202076;28;20065;-79
2023/02/19 14:14:00;;;;;;;;;;;13.30;99.90;;;;;;6204042;28;20126;-79
2023/02/19 14:17:20;;;;;;;3.90;2.40;;;13.30;99.90;;;;;;6204833;28;19930;-80
2023/02/19 14:20:44;;;;;;;4.03;1.95;;;13.20;99.90;;;;;;6205764;28;20511;-79
2023/02/19 14:23:52;;;;;;;4.25;2.58;;;13.30;99.90;;;;;;6209999;28;20581;-79
2023/02/19 14:26:56;;;;;;;4.88;2.22;;;13.20;99.90;;;;;;6182398;28;20042;-79
2023/02/19 14:29:58;;;;;;;5.30;2.85;;;13.20;99.90;;;;;;6195932;28;20061;-79
2023/02/19 14:33:01;;;;;;;3.15;2.10;;;13.20;99.90;;;;;;6204062;28;20042;-78
2023/02/19 14:36:09;;;;;;;9.35;2.20;;;13.20;99.90;;;;;;6200016;28;20054;-79
2023/02/19 14:39:16;;;;;;;2.05;1.52;;;13.10;99.90;;;;;;6206757;28;21631;-79
2023/02/19 14:42:25;;;;;;;4.72;1.95;;;13.10;99.90;;;;;;6206089;28;20130;-79
2023/02/19 14:45:29;;;;;;;2.85;2.13;;;13.00;99.90;;;;;;6198745;28;20426;-79
2023/02/19 14:48:38;;;;;;;4.75;1.75;;;12.90;99.90;;;;;;6205102;28;20062;-78
2023/02/19 14:51:43;;;;;;;6.85;2.40;;;12.80;99.90;;;;;;6203908;28;20046;-78
2023/02/19 14:54:53;;;;;;;4.10;2.72;;;12.70;99.90;;;;;;6207227;28;20377;-79
2023/02/19 14:58:02;;;;;;;5.60;1.70;;;12.60;99.90;;;;;;6204679;28;20042;-78
2023/02/19 15:01:08;;;;;;;5.22;2.05;;;12.60;99.90;;;;;;6201869;28;20050;-79
2023/02/19 15:04:21;;;;;;;5.47;2.22;;;12.50;99.90;;;;;;6203174;28;20058;-76
2023/02/19 15:07:26;;;;;;;5.45;2.60;;;12.50;99.90;;;;;;6203285;28;20411;-79
2023/02/19 15:10:30;;;;;;;3.65;2.47;;;12.40;99.90;;;;;;6199942;28;20199;-78
2023/02/19 15:13:33;;;;;;;5.75;2.47;;;12.40;99.90;;;;;;6207650;28;20070;-78
2023/02/19 15:16:39;;;;;;;4.63;2.65;;;12.30;99.90;;;;;;6197560;28;20054;-78
2023/02/19 15:19:43;;;;;;;12.15;4.13;;;12.10;99.90;;;;;;6195989;28;20046;-79
2023/02/19 15:22:45;;;;;;;3.00;2.60;;;12.20;99.90;;;;;;6201306;28;20527;-78
2023/02/19 15:25:48;;;;;;;7.82;3.15;;;12.20;99.90;;;;;;6199219;28;20528;-78
2023/02/19 15:28:59;;;;;;;6.38;3.70;;;12.30;99.90;;;;;;6198960;28;20500;-79
2023/02/19 15:32:01;;;;;;;4.32;3.50;;;12.20;99.90;;;;;;6202655;28;20069;-79
2023/02/19 15:35:04;;;;;;;13.15;3.80;;;12.20;99.90;;;;;;6204477;28;20096;-79
2023/02/19 15:38:09;;;;;;;5.70;3.80;;;12.10;99.90;;;;;;6200545;28;20054;-78
2023/02/19 15:41:21;;;;;;;8.35;3.88;;;12.00;99.90;;;;;;6203717;28;20385;-78
2023/02/19 15:44:39;;;;;;;6.40;2.97;;;11.90;99.90;;;;;;6206427;28;20061;-78
2023/02/19 15:47:44;;;;;;;8.07;3.65;;;11.90;99.90;;;;;;6204414;28;20058;-78
2023/02/19 15:50:50;;;;;;;7.18;3.20;;;11.80;99.90;;;;;;6202737;28;20046;-78
2023/02/19 15:53:58;;;;;;;4.30;3.40;;;11.70;99.90;;;;;;6202648;28;20042;-78
2023/02/19 15:57:03;;;;;;;6.28;3.10;;;11.70;99.90;;;;;;6202513;28;20046;-78
2023/02/19 16:00:14;;;;;;;3.85;3.00;;;11.70;99.90;;;;;;6207000;28;20049;-78
2023/02/19 16:03:18;;;;;;;21.98;19.80;;;11.70;99.90;;;;;;6204083;28;20042;-78
2023/02/19 16:06:21;;;;;;;11.05;7.00;;;11.60;99.90;;;;;;6202119;28;20050;-79
2023/02/19 16:09:29;;;;;;;6.03;5.43;;;11.60;99.90;;;;;;6202075;28;20046;-78
2023/02/19 16:12:31;;;;;;;;;;;11.60;99.90;;;;;;6202386;28;20058;-78
2023/02/19 16:15:35;;;;;;;7.20;5.68;;;11.50;99.90;;;;;;6203154;28;19936;-79
2023/02/19 16:18:36;;;;;;;15.63;13.95;;;11.50;99.90;;;;;;6202624;28;20073;-78
2023/02/19 16:21:39;;;;;;;13.52;9.23;;;11.50;99.90;;;;;;6202132;28;20050;-78
2023/02/19 16:24:44;;;;;;;8.00;3.63;;;11.50;99.90;;;;;;6202154;28;20117;-78
2023/02/19 16:27:46;;;;;;;4.82;2.63;;;11.50;99.90;;;;;;6201302;28;20050;-79
2023/02/19 16:30:57;;;;;;;6.22;4.10;;;11.50;99.90;;;;;;6199503;28;20037;-77
2023/02/19 16:34:16;;;;;;;5.15;2.88;;;11.40;99.90;;;;;;6202122;28;20051;-78
2023/02/19 16:37:35;;;;;;;7.75;3.03;;;11.40;99.90;;;;;;6201635;28;20151;-77
2023/02/19 16:41:05;;;;;;;7.60;3.63;;;11.40;99.90;;;;;;6202939;28;20046;-78
2023/02/19 16:44:30;;;;;;;4.82;3.05;;;11.30;99.90;;;;;;6202274;28;20050;-78
2023/02/19 16:47:37;;;;;;;6.85;3.08;;;11.30;99.90;;;;;;6203784;28;20106;-78
2023/02/19 16:50:41;;;;;;;9.18;3.38;;;11.20;99.90;;;;;;6198412;28;20476;-77
2023/02/19 16:53:42;;;;;;;6.30;4.28;;;11.20;99.90;;;;;;6202040;28;20069;-77
2023/02/19 16:56:44;;;;;;;3.42;2.50;;;11.20;99.90;;;;;;6202533;28;20056;-77
2023/02/19 16:59:46;;;;;;;5.32;2.90;;;11.20;99.90;;;;;;6200631;28;20054;-77
2023/02/19 17:02:52;;;;;;;5.95;3.33;;;11.20;99.90;;;;;;6199718;28;20049;-78
2023/02/19 17:06:03;;;;;;;5.28;2.53;;;11.10;99.90;;;;;;6201502;28;20054;-78
2023/02/19 17:09:05;;;;;;;10.30;3.47;;;11.10;99.90;;;;;;6199728;28;20057;-77
2023/02/19 17:12:11;;;;;;;7.68;2.60;;;11.10;99.90;;;;;;6205989;28;20061;-77
2023/02/19 17:15:13;;;;;;;5.95;2.65;;;11.10;99.90;;;;;;6202369;28;20054;-78
2023/02/19 17:18:16;;;;;;;9.32;3.33;;;11.10;99.90;;;;;;6204228;28;20062;-79
2023/02/19 17:21:22;;;;;;;13.82;3.40;;;11.00;99.90;;;;;;6203092;28;20073;-79
2023/02/19 17:24:25;;;;;;;6.10;5.07;;;11.10;99.90;;;;;;6209645;28;20565;-78
2023/02/19 17:27:27;;;;;;;7.32;2.60;;;11.30;99.90;;;;;;6187830;28;20546;-78
2023/02/19 17:30:32;;;;;;;8.95;3.20;;;11.30;99.90;;;;;;6197601;28;20054;-79
2023/02/19 17:33:35;;;;;;;7.28;3.22;;;11.20;99.90;;;;;;6186647;28;20050;-79
2023/02/19 17:36:37;;;;;;;5.00;3.00;;;11.20;99.90;;;;;;6188579;28;20061;-78
2023/02/19 17:39:39;;;;;;;7.80;2.78;;;11.20;99.90;;;;;;6190948;28;20511;-80
2023/02/19 17:42:41;;;;;;;4.97;3.05;;;11.20;99.90;;;;;;6192185;28;20056;-78
2023/02/19 17:45:43;;;;;;;6.93;2.58;;;11.10;99.90;;;;;;6192356;28;20054;-79
2023/02/19 17:48:46;;;;;;;6.43;3.53;;;11.00;99.90;;;;;;6193505;28;20054;-79
2023/02/19 17:51:48;;;;;;;7.50;5.85;;;11.00;99.90;;;;;;6205656;28;20050;-79
2023/02/19 17:54:50;;;;;;;6.50;2.58;;;11.00;99.90;;;;;;6206477;28;20046;-79
2023/02/19 17:57:53;;;;;;;10.43;3.55;;;11.00;99.90;;;;;;6200049;28;20054;-79
2023/02/19 18:00:55;;;;;;;7.68;3.03;;;11.00;99.90;;;;;;6195499;28;20049;-79
2023/02/19 18:03:59;;;;;;;8.75;3.17;;;11.00;99.90;;;;;;6200659;28;20053;-80
2023/02/19 18:07:03;;;;;;;9.75;3.22;;;11.00;99.90;;;;;;6204193;28;20054;-78
2023/02/19 18:10:07;;;;;;;33.08;16.85;;;11.10;99.90;;;;;;6205333;28;20053;-78
2023/02/19 18:13:09;;;;;;;11.20;3.67;;;11.10;99.90;;;;;;6200923;28;20177;-78
2023/02/19 18:16:14;;;;;;;30.00;18.95;;;11.00;99.90;;;;;;6201103;28;20051;-80
2023/02/19 18:19:17;;;;;;;8.75;5.35;;;11.10;99.90;;;;;;6167001;28;20057;-80
2023/02/19 18:22:19;;;;;;;6.03;3.63;;;10.90;99.90;;;;;;6160656;28;20162;-79
2023/02/19 18:25:22;;;;;;;9.63;3.25;;;10.90;99.90;;;;;;6164714;28;20185;-80
2023/02/19 18:28:24;;;;;;;102.97;67.78;;;10.90;99.90;;;;;;6163753;28;20042;-79
2023/02/19 18:31:27;;;;;;;12.88;6.82;;;10.90;99.90;;;;;;6166123;28;20051;-79
2023/02/19 18:34:31;;;;;;;9.40;4.90;;;10.90;99.90;;;;;;6163628;28;20461;-79
2023/02/19 18:37:34;;;;;;;8.73;4.35;;;10.90;99.90;;;;;;6185252;28;20108;-79
2023/02/19 18:40:36;;;;;;;15.98;6.03;;;10.90;99.90;;;;;;6199545;28;20471;-79
2023/02/19 18:43:40;;;;;;;11.35;7.38;;;10.90;99.90;;;;;;6200485;28;20133;-78